Tiempo atmosférico en la estación meteorológica de Bello, Teruel (1006 m.)



Fecha
DESCASC
Temp. máxima en grados centígrados (hora)
DESCASC
Temp. mínima en grados centígrados (hora)
DESCASC
Temp. media en grados centígrados
DESCASC
Racha de viento máxima en m/sg (hora)
DESCASC
Velocidad máxima media en intervalos de 10 minutos(hora)
DESCASC
Precipitaciones diarias en mm
DESCASC
Precipitaciones de 00:00 a 06:00 en mm
DESCASC
Precipitaciones de 06:00 a 12:00 en mm
DESCASC
Precipitaciones de 12:00 a 18:00 en mm
DESCASC
Precipitaciones de 18:00 a 24:00 en mm
DESCASC
18-04-2019 13.9 (14:30) 6.5 (22:40) 10.2 15.83 (01:30) 10.28 (00:50) 21.2 0 0.2 0.2 20.8
17-04-2019 20.5 (16:20) 7.4 (07:10) 14 15.56 (18:40) 12.22 (18:30) 0 0 0 0 0
16-04-2019 17.8 (18:30) 6.9 (00:00) 12.3 12.5 (23:30) 9.44 (23:30) 0 0 0 0 0
15-04-2019 21.4 (17:00) 4.5 (00:00) 12.9 13.61 (17:20) 8.33 (17:10) 0 0 0 0 0
14-04-2019 19.8 (18:10) 1.9 (00:00) 10.8 8.89 (13:20) 5.83 (13:30) 0 0 0 0 0
13-04-2019 17.6 (19:00) -3.7 (-00:0) 7 6.11 (16:20) 3.61 (01:30) 0 0 0 0 0
12-04-2019 13.5 (17:50) -0.5 (-00:0) 6.5 7.78 (14:40) 4.17 (12:40) 0 0 0 0 0
11-04-2019 10.9 (15:20) 0.1 (00:00) 5.5 10.56 (14:00) 6.39 (14:40) 0 0 0 0 0
10-04-2019 9.7 (14:20) 1.1 (00:00) 5.4 11.11 (01:30) 7.5 (15:20) 0.4 0 0 0.4 0
09-04-2019 9.4 (15:20) 2 (00:00) 5.7 14.17 (17:30) 8.89 (18:00) 6.6 4.6 0 0.6 1.4
08-04-2019 13 (16:00) 4.3 (00:00) 8.7 12.5 (13:30) 8.33 (16:30) 0.8 0.6 0.2 0 0
07-04-2019 9.7 (17:00) 1.4 (00:00) 5.5 11.11 (12:00) 7.5 (04:20) 0 0 0 0 0
06-04-2019 7.6 (15:20) 0.9 (00:00) 4.2 15.28 (17:30) 8.89 (10:40) 4 0 0 1.4 2.6
05-04-2019 8.3 (12:30) 1.6 (00:00) 5 15.28 (21:00) 8.61 (21:10) 3.4 0 0 2 1.4
04-04-2019 11 (17:50) -2.3 (-00:0) 4.4 8.61 (10:30) 5.28 (10:20) 0 0 0 0 0
03-04-2019 8.6 (12:40) 1 (23:59) 4.8 10.56 (20:20) 6.94 (20:20) 0.2 0 0 0.2 0
02-04-2019 14.9 (16:50) 5.1 (00:00) 10 12.5 (14:20) 5.83 (17:50) 2.2 0.4 0.8 0.4 0.6
01-04-2019 10.8 (14:00) 5.3 (00:00) 8.1 6.11 (15:30) 3.61 (15:00) 9.4 1.6 1 4.2 2.6
31-03-2019 7.9 (12:50) 1.2 (00:00) 4.6 6.11 (13:20) 4.17 (13:20) 11.8 0 0 8.6 3.2
30-03-2019 15.9 (17:10) -2.2 (-00:0) 6.8 9.17 (18:20) 6.39 (23:00) 0 0 0 0 0
29-03-2019 15.8 (15:40) -2.4 (-00:0) 6.7 14.17 (19:30) 9.72 (20:40) 0 0 0 0 0
28-03-2019 15.9 (16:30) -4.9 (-00:0) 5.5 9.17 (22:40) 6.39 (22:30) 0 0 0 0 0
27-03-2019 14.6 (15:50) -6.4 (-00:0) 4.1 7.5 (17:00) 4.44 (17:20) 0 0 0 0 0
26-03-2019 14.7 (16:10) -5.5 (-00:0) 4.6 8.89 (17:40) 5.83 (16:00) 0 0 0 0 0
25-03-2019 15.6 (15:30) -2.1 (-00:0) 6.8 9.17 (18:30) 6.67 (18:00) 0 0 0 0 0
24-03-2019 18.7 (15:00) -3.7 (-00:0) 7.5 10 (17:20) 5 (19:00) 0 0 0 0 0
23-03-2019 16.9 (15:00) -1.9 (-00:0) 7.5 10.83 (13:30) 6.11 (13:30) 0 0 0 0 0
22-03-2019 15.1 (16:20) -5.6 (-00:0) 4.8 10 (13:40) 6.67 (13:40) 0 0 0 0 0
21-03-2019 12 (16:30) -6.3 (-00:0) 2.8 10 (15:50) 4.44 (19:00) 0 0 0 0 0

Gráficas

Temp. máximas Temp. mínimas Temp. medias Precipitaciones Rachas de viento máximas Velocidades máximas media en intervalos de 10 minutos

Datos horarios

Fecha y hora oficial Temperatura (ºC) Velocidad del viento (km/h) Dirección del viento Racha (km/h) Dirección de racha Precipitación (mm) Presión (hPa) Tendencia (hPa) Humedad (%)
2019-04-19 23:00:00 8.8 23 Este 45 Este 0 -- -- 72
2019-04-19 22:00:00 9.5 29 Este 59 Este 0 -- -- 69
2019-04-19 21:00:00 9.8 30 Este 51 Sudeste 0 -- -- 68
2019-04-19 20:00:00 10.5 26 Sudeste 55 Sudeste 0 -- -- 69
2019-04-19 19:00:00 11.3 37 Sudeste 66 Sudeste 0 -- -- 65
2019-04-19 18:00:00 11.4 42 Sudeste 64 Este 0 -- -- 67
2019-04-19 17:00:00 11.9 40 Este 66 Este 0 -- -- 68
2019-04-19 16:00:00 11.1 43 Sudeste 72 Este 0 -- -- 75
2019-04-19 15:00:00 10.9 38 Sudeste 59 Sudeste 0 -- -- 83
2019-04-19 14:00:00 9.1 34 Sudeste 51 Sudeste 0 -- -- 88
2019-04-19 13:00:00 9.1 17 Este 36 Sudeste 0 -- -- 91
2019-04-19 12:00:00 8 9 Este 20 Este 0.4 -- -- 98
2019-04-19 11:00:00 7.2 6 Norte 10 Norte 1.2 -- -- 97
2019-04-19 10:00:00 7 5 Norte 11 Nordeste 2 -- -- 97
2019-04-19 09:00:00 6.9 7 Nordeste 16 Este 3 -- -- 96
2019-04-19 08:00:00 6.9 7 Este 13 Sudeste 1.8 -- -- 95
2019-04-19 07:00:00 7 13 Sudeste 28 Sudeste 2.8 -- -- 93
2019-04-19 06:00:00 7.3 20 Sudeste 32 Sudeste 4.2 -- -- 93
2019-04-19 05:00:00 7.3 19 Sudeste 31 Sudeste 5.6 -- -- 95
2019-04-19 04:00:00 7.3 17 Sudeste 30 Sudeste 5 -- -- 94
2019-04-19 03:00:00 7 15 Este 24 Este 1 -- -- 93
2019-04-19 02:00:00 6.5 8 Sudeste 16 Oeste 2.4 -- -- 95
2019-04-19 01:00:00 6.4 12 Este 18 Sudeste 0.6 -- -- 95
2019-04-19 00:00:00 6.6 7 Sudeste 16 Sudeste 0.6 -- -- 95
2019-04-18 23:00:00 6.6 6 Sudeste 9 Este 4.8 -- -- 95
2019-04-18 22:00:00 6.7 0 Calma 17 Noroeste 4.6 -- -- 93
2019-04-18 21:00:00 6.8 8 Oeste 23 Oeste 4.6 -- -- 92
2019-04-18 20:00:00 7.4 6 Noroeste 15 Oeste 5 -- -- 93
2019-04-18 19:00:00 7.6 14 Oeste 30 Oeste 1.2 -- -- 90
2019-04-18 18:00:00 9.2 14 Noroeste 22 Noroeste 0 -- -- 83
2019-04-18 17:00:00 10.7 17 Sur 40 Sudeste 0.2 -- -- 78
2019-04-18 16:00:00 11.7 27 Sudeste 47 Sudeste 0 -- -- 69
2019-04-18 15:00:00 12.6 32 Este 42 Sudeste 0 -- -- 64
2019-04-18 14:00:00 12.7 18 Este 30 Sudeste 0 -- -- 66
2019-04-18 13:00:00 12.3 9 Nordeste 19 Nordeste 0 -- -- 70
2019-04-18 12:00:00 11.3 16 Nordeste 25 Nordeste 0 -- -- 78
2019-04-18 11:00:00 10.1 17 Nordeste 23 Nordeste 0 -- -- 82
2019-04-18 10:00:00 9 7 Nordeste 18 Oeste 0 -- -- 83
2019-04-18 09:00:00 8.3 7 Sur 15 Sudeste 0.2 -- -- 83
2019-04-18 08:00:00 8.6 8 Sudeste 18 Sur 0 -- -- 75
2019-04-18 07:00:00 8.4 6 Sudeste 13 Sudeste 0 -- -- 75
2019-04-18 06:00:00 8.4 3 Sudeste 19 Sur 0 -- -- 78
2019-04-18 05:00:00 8.9 13 Sur 30 Sur 0 -- -- 79
2019-04-18 04:00:00 9.1 20 Sur 33 Sur 0 -- -- 79
2019-04-18 03:00:00 9.7 28 Sur 54 Sur 0 -- -- 80
2019-04-18 02:00:00 9.9 28 Sur 57 Sur 0 -- -- 80
2019-04-18 01:00:00 10.3 33 Sur 48 Sur 0 -- -- 78
2019-04-18 00:00:00 10.5 23 Sudeste 37 Sur 0 -- -- 79
2019-04-17 23:00:00 11.3 28 Sur 51 Sur 0 -- -- 75
2019-04-17 22:00:00 12.5 32 Sur 48 Sur 0 -- -- 70
2019-04-17 21:00:00 14 33 Sur 43 Sur 0 -- -- 64
2019-04-17 20:00:00 15.7 36 Sur 50 Sur 0 -- -- 57
2019-04-17 19:00:00 17.9 36 Sur 56 Sur 0 -- -- 46
2019-04-17 18:00:00 18.6 38 Sur 53 Sur 0 -- -- 42
2019-04-17 17:00:00 20.2 38 Sur 55 Sur 0 -- -- 40
2019-04-17 16:00:00 20.1 38 Sur 52 Sur 0 -- -- 44
2019-04-17 15:00:00 18 37 Sur 49 Sur 0 -- -- 48
2019-04-17 14:00:00 16.7 36 Sur 46 Sur 0 -- -- 54
2019-04-17 13:00:00 15.6 36 Sur 49 Sur 0 -- -- 52
2019-04-17 12:00:00 14.2 33 Sur 46 Sur 0 -- -- 57
2019-04-17 11:00:00 12.3 31 Sur 44 Sur 0 -- -- 64
2019-04-17 10:00:00 10.5 33 Sur 45 Sur 0 -- -- 68
2019-04-17 09:00:00 9.5 33 Sur 49 Sur 0 -- -- 73
2019-04-17 08:00:00 8 26 Sur 45 Sur 0 -- -- 82
2019-04-17 07:00:00 7.5 32 Sur 50 Sur 0 -- -- 85
2019-04-17 06:00:00 7.5 38 Sur 50 Sur 0 -- -- 87
2019-04-17 05:00:00 7.7 35 Sur 44 Sur 0 -- -- 86
2019-04-17 04:00:00 8.5 35 Sur 52 Sur 0 -- -- 83
2019-04-17 03:00:00 8.6 30 Sur 44 Sur 0 -- -- 83
2019-04-17 02:00:00 9.3 35 Sur 55 Sur 0 -- -- 82
2019-04-17 01:00:00 9.5 29 Sur 48 Sur 0 -- -- 82
2019-04-17 00:00:00 9.7 30 Sur 45 Sur 0 -- -- 83
2019-04-16 23:00:00 10.9 30 Sur 41 Sur 0 -- -- 78
2019-04-16 22:00:00 12.6 22 Sudeste 29 Sudeste 0 -- -- 70
2019-04-16 21:00:00 13.6 16 Sudeste 26 Sudeste 0 -- -- 60
2019-04-16 20:00:00 16.5 9 Este 14 Este 0 -- -- 45
2019-04-16 19:00:00 17.7 9 Sudeste 18 Este 0 -- -- 39
2019-04-16 18:00:00 17.5 10 Sudeste 19 Sudeste 0 -- -- 40
2019-04-16 17:00:00 17.1 10 Sudeste 20 Sur 0 -- -- 37
2019-04-16 16:00:00 16.3 10 Este 21 Este 0 -- -- 36
2019-04-16 15:00:00 15.9 12 Sudeste 20 Sudeste 0 -- -- 46
2019-04-16 14:00:00 14.6 7 Este 15 Sur 0 -- -- 53
2019-04-16 13:00:00 13.4 5 Sudeste 15 Sudoeste 0 -- -- 60
2019-04-16 12:00:00 12.1 3 Sur 10 Sur 0 -- -- 65
2019-04-16 11:00:00 10.5 4 Este 12 Este 0 -- -- 71
2019-04-16 10:00:00 10 5 Nordeste 13 Este 0 -- -- 74
2019-04-16 09:00:00 9.2 2 Este 13 Norte 0 -- -- 82
2019-04-16 08:00:00 7.4 7 Norte 12 Norte 0 -- -- 90
2019-04-16 07:00:00 6.9 5 Noroeste 12 Norte 0 -- -- 91
2019-04-16 06:00:00 7.7 0 Calma 9 Noroeste 0 -- -- 91
2019-04-16 05:00:00 7.3 0 Calma 17 Noroeste 0 -- -- 88
2019-04-16 04:00:00 8.4 12 Noroeste 20 Noroeste 0 -- -- 73
2019-04-16 03:00:00 9.5 9 Noroeste 19 Noroeste 0 -- -- 68
2019-04-16 02:00:00 10.6 14 Noroeste 30 Noroeste 0 -- -- 64
2019-04-16 01:00:00 11 21 Noroeste 40 Noroeste 0 -- -- 65
2019-04-16 00:00:00 11.5 19 Noroeste 37 Noroeste 0 -- -- 70
2019-04-15 23:00:00 12.2 21 Noroeste 46 Noroeste 0 -- -- 70
2019-04-15 22:00:00 15.9 13 Oeste 33 Noroeste 0 -- -- 49
2019-04-15 21:00:00 17.6 19 Oeste 42 Oeste 0 -- -- 41
2019-04-15 20:00:00 19.9 24 Oeste 39 Oeste 0 -- -- 40
2019-04-15 19:00:00 20.6 22 Oeste 44 Sudoeste 0 -- -- 41
2019-04-15 18:00:00 20.3 23 Oeste 49 Sudoeste 0 -- -- 42
2019-04-15 17:00:00 21.4 22 Oeste 45 Oeste 0 -- -- 39
2019-04-15 16:00:00 20.2 16 Sur 29 Sudoeste 0 -- -- 47
2019-04-15 15:00:00 19.8 15 Oeste 33 Sudoeste 0 -- -- 49
2019-04-15 14:00:00 20.6 11 Sudoeste 40 Sudeste 0 -- -- 45
2019-04-15 13:00:00 19.6 29 Sur 40 Sur 0 -- -- 51
2019-04-15 12:00:00 18 26 Sur 35 Sur 0 -- -- 56
2019-04-15 11:00:00 16.9 21 Sur 31 Sur 0 -- -- 59
2019-04-15 10:00:00 14 6 Sudeste 17 Sudeste 0 -- -- 71
2019-04-15 09:00:00 8.4 4 Oeste 9 Oeste 0 -- -- 93
2019-04-15 08:00:00 4.8 0 Calma 8 Norte 0 -- -- 94
2019-04-15 07:00:00 5.4 4 Noroeste 9 Oeste 0 -- -- 94
2019-04-15 06:00:00 5 4 Sudeste 6 Sudeste 0 -- -- 90
2019-04-15 05:00:00 6.4 2 Noroeste 6 Oeste 0 -- -- 91
2019-04-15 04:00:00 6.1 0 Calma 5 Nordeste 0 -- -- 92
2019-04-15 03:00:00 6.5 4 Nordeste 5 Este 0 -- -- 89
2019-04-15 02:00:00 7.6 2 Noroeste 10 Sudoeste 0 -- -- 88
2019-04-15 01:00:00 8.2 6 Sudoeste 16 Sudoeste 0 -- -- 85
2019-04-15 00:00:00 8.9 11 Sudoeste 15 Sudoeste 0 -- -- 83
2019-04-14 23:00:00 12.2 5 Sudeste 8 Norte 0 -- -- 72
2019-04-14 22:00:00 13.3 4 Nordeste 18 Nordeste 0 -- -- 66
2019-04-14 21:00:00 15.3 10 Nordeste 19 Norte 0 -- -- 61
2019-04-14 20:00:00 17.7 14 Norte 27 Norte 0 -- -- 54
2019-04-14 19:00:00 18.9 18 Norte 29 Norte 0 -- -- 52
2019-04-14 18:00:00 19.7 18 Noroeste 31 Norte 0 -- -- 52
2019-04-14 17:00:00 19.6 17 Norte 29 Noroeste 0 -- -- 52
2019-04-14 16:00:00 19.4 14 Noroeste 30 Noroeste 0 -- -- 53
2019-04-14 15:00:00 18.6 13 Norte 28 Noroeste 0 -- -- 54
2019-04-14 14:00:00 17.9 16 Noroeste 32 Noroeste 0 -- -- 55
2019-04-14 13:00:00 17 19 Norte 32 Norte 0 -- -- 56
2019-04-14 12:00:00 15.5 13 Noroeste 25 Noroeste 0 -- -- 62
2019-04-14 11:00:00 13.3 8 Oeste 17 Oeste 0 -- -- 63
2019-04-14 10:00:00 10.8 5 Noroeste 8 Noroeste 0 -- -- 66
2019-04-14 09:00:00 7.2 4 Norte 9 Norte 0 -- -- 73
2019-04-14 08:00:00 3.7 4 Oeste 8 Sudoeste 0 -- -- 72
2019-04-14 07:00:00 3.6 3 Noroeste 9 Oeste 0 -- -- 68
2019-04-14 06:00:00 2.3 5 Oeste 8 Sudoeste 0 -- -- 74
2019-04-14 05:00:00 2 3 Oeste 4 Oeste 0 -- -- 75
2019-04-14 04:00:00 3 3 Sudeste 9 Oeste 0 -- -- 67
2019-04-14 03:00:00 3.5 0 Calma 6 Oeste 0 -- -- 63
2019-04-14 02:00:00 4.3 2 Noroeste 14 Oeste 0 -- -- 59
2019-04-14 01:00:00 4.8 8 Oeste 15 Oeste 0 -- -- 57
2019-04-14 00:00:00 6.7 10 Noroeste 17 Noroeste 0 -- -- 49
2019-04-13 23:00:00 6.7 6 Noroeste 11 Noroeste 0 -- -- 46
2019-04-13 22:00:00 7.9 5 Sudeste 18 Noroeste 0 -- -- 48
2019-04-13 21:00:00 12.4 8 Noroeste 14 Noroeste 0 -- -- 33
2019-04-13 20:00:00 17.2 4 Norte 10 Nordeste 0 -- -- 23
2019-04-13 19:00:00 17.6 6 Norte 18 Norte 0 -- -- 20
2019-04-13 18:00:00 17.4 8 Norte 19 Norte 0 -- -- 19
2019-04-13 17:00:00 16.8 10 Norte 22 Noroeste 0 -- -- 21
2019-04-13 16:00:00 16.2 9 Norte 21 Norte 0 -- -- 24
2019-04-13 15:00:00 15.5 8 Norte 17 Noroeste 0 -- -- 27
2019-04-13 14:00:00 14.1 7 Norte 17 Norte 0 -- -- 32
2019-04-13 13:00:00 12.6 5 Nordeste 16 Noroeste 0 -- -- 41
2019-04-13 12:00:00 10.5 6 Norte 13 Noroeste 0 -- -- 43
2019-04-13 11:00:00 7.4 5 Norte 10 Noroeste 0 -- -- 53
2019-04-13 10:00:00 4.1 2 Este 4 Nordeste 0 -- -- 70
2019-04-13 09:00:00 0.4 3 Sur 4 Sudoeste 0 -- -- 83
2019-04-13 08:00:00 -3.6 0 Calma 9 Oeste 0 -- -- 88
2019-04-13 07:00:00 -3.6 4 Sudoeste 5 Sudoeste 0 -- -- 87
2019-04-13 06:00:00 -2.2 2 Noroeste 10 Oeste 0 -- -- 86
2019-04-13 05:00:00 -1.5 8 Oeste 9 Oeste 0 -- -- 85
2019-04-13 04:00:00 -1.3 0 Calma 10 Oeste 0 -- -- 86
2019-04-13 03:00:00 0.4 4 Oeste 12 Oeste 0 -- -- 84
2019-04-13 02:00:00 0.9 5 Sudoeste 18 Sudoeste 0 -- -- 85
2019-04-13 01:00:00 1.5 11 Oeste 18 Sudoeste 0 -- -- 87
2019-04-13 00:00:00 2.1 8 Oeste 11 Oeste 0 -- -- 85
2019-04-12 23:00:00 4.4 4 Oeste 8 Oeste 0 -- -- 75
2019-04-12 22:00:00 6.1 3 Sudeste 9 Este 0 -- -- 68
2019-04-12 21:00:00 8.4 7 Este 18 Nordeste 0 -- -- 64
2019-04-12 20:00:00 12.6 5 Este 15 Nordeste 0 -- -- 43
2019-04-12 19:00:00 13.3 10 Norte 18 Nordeste 0 -- -- 39
2019-04-12 18:00:00 13.4 8 Norte 23 Noroeste 0 -- -- 40
2019-04-12 17:00:00 12.8 12 Noroeste 24 Noroeste 0 -- -- 44
2019-04-12 16:00:00 12.1 8 Norte 22 Norte 0 -- -- 46
2019-04-12 15:00:00 11.1 7 Norte 28 Noroeste 0 -- -- 53
2019-04-12 14:00:00 9.5 9 Noroeste 21 Norte 0 -- -- 59
2019-04-12 13:00:00 8.4 11 Norte 26 Nordeste 0 -- -- 63
2019-04-12 12:00:00 6.9 13 Norte 26 Noroeste 0 -- -- 69
2019-04-12 11:00:00 6.3 11 Norte 19 Noroeste 0 -- -- 76
2019-04-12 10:00:00 4.5 11 Norte 20 Noroeste 0 -- -- 82
2019-04-12 09:00:00 1.5 3 Noroeste 8 Oeste 0 -- -- 92
2019-04-12 08:00:00 -0.2 2 Oeste 9 Noroeste 0 -- -- 91
2019-04-12 07:00:00 0 3 Sudoeste 10 Noroeste 0 -- -- 89
2019-04-12 06:00:00 2.4 4 Noroeste 15 Norte 0 -- -- 87
2019-04-12 05:00:00 2.4 6 Noroeste 12 Noroeste 0 -- -- 90
2019-04-12 04:00:00 1.8 6 Norte 13 Noroeste 0 -- -- 90
2019-04-12 03:00:00 1.4 7 Noroeste 17 Noroeste 0 -- -- 87
2019-04-12 02:00:00 2.1 9 Noroeste 19 Noroeste 0 -- -- 88
2019-04-12 01:00:00 3 10 Noroeste 21 Norte 0 -- -- 86
2019-04-12 00:00:00 3.9 13 Norte 23 Noroeste 0 -- -- 83
2019-04-11 23:00:00 4.5 11 Noroeste 21 Norte 0 -- -- 82
2019-04-11 22:00:00 5.1 10 Noroeste 14 Norte 0 -- -- 79
2019-04-11 21:00:00 6.9 11 Norte 26 Nordeste 0 -- -- 68
2019-04-11 20:00:00 8.3 18 Norte 29 Norte 0 -- -- 64
2019-04-11 19:00:00 9.5 14 Norte 34 Norte 0 -- -- 61
2019-04-11 18:00:00 10.4 18 Norte 33 Norte 0 -- -- 53
2019-04-11 17:00:00 10.3 21 Norte 37 Norte 0 -- -- 54
2019-04-11 16:00:00 10.6 19 Norte 34 Norte 0 -- -- 54
2019-04-11 15:00:00 9.6 21 Norte 37 Norte 0 -- -- 55
2019-04-11 14:00:00 9.9 20 Norte 38 Norte 0 -- -- 55
2019-04-11 13:00:00 8.7 19 Norte 31 Noroeste 0 -- -- 63
2019-04-11 12:00:00 7.3 16 Norte 29 Noroeste 0 -- -- 65
2019-04-11 11:00:00 6 18 Norte 30 Noroeste 0 -- -- 75
2019-04-11 10:00:00 4.5 14 Noroeste 28 Noroeste 0 -- -- 85
2019-04-11 09:00:00 3 10 Norte 18 Noroeste 0 -- -- 91
2019-04-11 08:00:00 0.8 5 Oeste 9 Norte 0 -- -- 94
2019-04-11 07:00:00 0.5 4 Noroeste 13 Oeste 0 -- -- 90
2019-04-11 06:00:00 1.3 9 Oeste 14 Noroeste 0 -- -- 92
2019-04-11 05:00:00 1.1 7 Noroeste 14 Noroeste 0 -- -- 91
2019-04-11 04:00:00 1.8 10 Noroeste 17 Noroeste 0 -- -- 91
2019-04-11 03:00:00 2.4 9 Norte 19 Noroeste 0 -- -- 89
2019-04-11 02:00:00 2.8 13 Noroeste 19 Noroeste 0 -- -- 87
2019-04-11 01:00:00 3 9 Noroeste 18 Noroeste 0 -- -- 87
2019-04-11 00:00:00 3.7 9 Noroeste 20 Noroeste 0 -- -- 87
2019-04-10 23:00:00 4.7 13 Noroeste 22 Noroeste 0 -- -- 83
2019-04-10 22:00:00 4.9 11 Norte 18 Norte 0 -- -- 83
2019-04-10 21:00:00 5.9 9 Noroeste 20 Noroeste 0 -- -- 83
2019-04-10 20:00:00 8.2 13 Noroeste 30 Norte 0 -- -- 71
2019-04-10 19:00:00 8.3 19 Noroeste 32 Noroeste 0 -- -- 70
2019-04-10 18:00:00 8 19 Noroeste 35 Noroeste 0 -- -- 74
2019-04-10 17:00:00 7.3 20 Noroeste 33 Norte 0 -- -- 78
2019-04-10 16:00:00 5.7 9 Norte 38 Nordeste 0.4 -- -- 82
2019-04-10 15:00:00 7.1 25 Nordeste 35 Nordeste 0 -- -- 77
2019-04-10 14:00:00 9 16 Norte 32 Norte 0 -- -- 62
2019-04-10 13:00:00 7.8 23 Noroeste 37 Noroeste 0 -- -- 68
2019-04-10 12:00:00 6.3 23 Noroeste 39 Norte 0 -- -- 75
2019-04-10 11:00:00 5.5 20 Noroeste 35 Noroeste 0 -- -- 79
2019-04-10 10:00:00 5.3 20 Noroeste 36 Noroeste 0 -- -- 80
2019-04-10 09:00:00 3.9 12 Noroeste 17 Noroeste 0 -- -- 90
2019-04-10 08:00:00 1.2 7 Oeste 14 Oeste 0 -- -- 94
2019-04-10 07:00:00 2 8 Oeste 21 Noroeste 0 -- -- 92
2019-04-10 06:00:00 2.5 12 Oeste 21 Oeste 0 -- -- 91
2019-04-10 05:00:00 3.2 11 Noroeste 17 Noroeste 0 -- -- 89
2019-04-10 04:00:00 4.1 11 Noroeste 19 Oeste 0 -- -- 88
2019-04-10 03:00:00 3.6 11 Oeste 20 Noroeste 0 -- -- 91
2019-04-10 02:00:00 3.8 12 Noroeste 40 Noroeste 0 -- -- 90
2019-04-10 01:00:00 4.4 15 Oeste 25 Noroeste 0 -- -- 86
2019-04-10 00:00:00 4.9 17 Noroeste 28 Oeste 0 -- -- 83
2019-04-09 23:00:00 4.8 17 Oeste 25 Oeste 0 -- -- 85
2019-04-09 22:00:00 4.6 13 Oeste 24 Oeste 0 -- -- 88
2019-04-09 21:00:00 4.9 11 Noroeste 25 Noroeste 0.2 -- -- 89
2019-04-09 20:00:00 5.1 15 Noroeste 28 Noroeste 0.4 -- -- 87
2019-04-09 19:00:00 4.8 13 Noroeste 44 Noroeste 0.8 -- -- 90
2019-04-09 18:00:00 6.4 32 Oeste 51 Sudoeste 0 -- -- 79
2019-04-09 17:00:00 7.5 16 Oeste 29 Sudoeste 0.4 -- -- 79
2019-04-09 16:00:00 6.2 25 Oeste 48 Oeste 0.2 -- -- 83
2019-04-09 15:00:00 9.3 17 Oeste 40 Oeste 0 -- -- 60
2019-04-09 14:00:00 9.1 25 Oeste 43 Oeste 0 -- -- 64
2019-04-09 13:00:00 8.6 25 Oeste 45 Oeste 0 -- -- 66
2019-04-09 12:00:00 7.6 23 Noroeste 39 Oeste 0 -- -- 70
2019-04-09 11:00:00 6.9 24 Oeste 47 Noroeste 0 -- -- 77
2019-04-09 10:00:00 5.3 28 Oeste 41 Noroeste 0 -- -- 85
2019-04-09 09:00:00 4.3 21 Oeste 29 Oeste 0 -- -- 91
2019-04-09 08:00:00 3 13 Oeste 18 Oeste 0 -- -- 94
2019-04-09 07:00:00 2 4 Sur 20 Noroeste 0 -- -- 92
2019-04-09 06:00:00 2.1 4 Este 9 Oeste 0 -- -- 93
2019-04-09 05:00:00 2.5 5 Noroeste 8 Norte 0 -- -- 93
2019-04-09 04:00:00 2.5 3 Sur 18 Noroeste 1.8 -- -- 92
2019-04-09 03:00:00 3.1 15 Noroeste 31 Noroeste 2.2 -- -- 90
2019-04-09 02:00:00 4.3 17 Oeste 29 Oeste 0.6 -- -- 89
2019-04-09 01:00:00 4.6 11 Noroeste 21 Noroeste 0 -- -- 86
2019-04-09 00:00:00 4.3 15 Noroeste 28 Norte 0 -- -- 88
2019-04-08 23:00:00 5.5 20 Noroeste 39 Noroeste 0 -- -- 85
2019-04-08 22:00:00 4.5 4 Sudoeste 7 Sur 0 -- -- 89
2019-04-08 21:00:00 6.4 4 Sur 10 Norte 0 -- -- 85
2019-04-08 20:00:00 8.3 9 Norte 29 Noroeste 0 -- -- 75
2019-04-08 19:00:00 10.6 10 Norte 36 Noroeste 0 -- -- 73
2019-04-08 18:00:00 12.1 23 Noroeste 37 Oeste 0 -- -- 60
2019-04-08 17:00:00 12.2 21 Noroeste 44 Oeste 0 -- -- 61
2019-04-08 16:00:00 13 24 Oeste 41 Noroeste 0 -- -- 60
2019-04-08 15:00:00 12.1 23 Oeste 40 Oeste 0 -- -- 65
2019-04-08 14:00:00 11.6 24 Oeste 45 Oeste 0 -- -- 70
2019-04-08 13:00:00 9.9 21 Noroeste 36 Oeste 0 -- -- 76
2019-04-08 12:00:00 9.2 23 Oeste 34 Oeste 0 -- -- 81
2019-04-08 11:00:00 8.2 16 Oeste 37 Oeste 0.2 -- -- 85
2019-04-08 10:00:00 7.4 20 Oeste 33 Oeste 0 -- -- 88
2019-04-08 09:00:00 7.1 21 Oeste 36 Oeste 0 -- -- 87
2019-04-08 08:00:00 6.2 20 Oeste 38 Oeste 0 -- -- 87
2019-04-08 07:00:00 5.7 19 Oeste 27 Oeste 0 -- -- 91
2019-04-08 06:00:00 5.2 5 Noroeste 15 Sudoeste 0 -- -- 89
2019-04-08 05:00:00 4.6 6 Sudeste 9 Sudoeste 0 -- -- 92
2019-04-08 04:00:00 4.5 8 Sur 14 Sur 0 -- -- 92
2019-04-08 03:00:00 4.7 8 Sur 11 Sur 0.2 -- -- 90
2019-04-08 02:00:00 4.6 5 Sudoeste 8 Sudoeste 0.2 -- -- 90
2019-04-08 01:00:00 4.7 9 Oeste 29 Oeste 0.2 -- -- 89
2019-04-08 00:00:00 5.3 21 Oeste 36 Oeste 0 -- -- 82
2019-04-07 23:00:00 5.7 18 Oeste 37 Oeste 0 -- -- 77
2019-04-07 22:00:00 6.5 11 Oeste 20 Oeste 0 -- -- 63
2019-04-07 21:00:00 7.2 10 Oeste 22 Noroeste 0 -- -- 65
2019-04-07 20:00:00 8.8 14 Noroeste 32 Oeste 0 -- -- 50
2019-04-07 19:00:00 9.1 21 Oeste 33 Oeste 0 -- -- 49
2019-04-07 18:00:00 9 15 Noroeste 30 Norte 0 -- -- 53
2019-04-07 17:00:00 9.7 16 Noroeste 31 Noroeste 0 -- -- 54
2019-04-07 16:00:00 8 21 Noroeste 32 Noroeste 0 -- -- 58
2019-04-07 15:00:00 7 19 Noroeste 36 Noroeste 0 -- -- 61
2019-04-07 14:00:00 6.6 24 Noroeste 39 Noroeste 0 -- -- 64
2019-04-07 13:00:00 5.7 22 Noroeste 39 Noroeste 0 -- -- 67
2019-04-07 12:00:00 5.2 26 Noroeste 40 Norte 0 -- -- 69
2019-04-07 11:00:00 3.6 18 Noroeste 37 Noroeste 0 -- -- 78
2019-04-07 10:00:00 3.2 21 Noroeste 32 Noroeste 0 -- -- 81
2019-04-07 09:00:00 2.7 17 Noroeste 27 Noroeste 0 -- -- 85
2019-04-07 08:00:00 1.4 11 Oeste 24 Noroeste 0 -- -- 90
2019-04-07 07:00:00 2 16 Noroeste 26 Oeste 0 -- -- 87
2019-04-07 06:00:00 2.1 15 Noroeste 31 Oeste 0 -- -- 86
2019-04-07 05:00:00 2.1 17 Oeste 38 Oeste 0 -- -- 87
2019-04-07 04:00:00 2.4 23 Oeste 34 Sudoeste 0 -- -- 87
2019-04-07 03:00:00 2.7 18 Oeste 35 Oeste 0 -- -- 87
2019-04-07 02:00:00 2.8 21 Oeste 33 Oeste 0 -- -- 87
2019-04-07 01:00:00 2.5 12 Oeste 32 Oeste 0 -- -- 90
2019-04-07 00:00:00 2.5 20 Oeste 30 Oeste 0 -- -- 88
2019-04-06 23:00:00 2.8 10 Oeste 17 Oeste 0 -- -- 88
2019-04-06 22:00:00 2.6 10 Oeste 17 Oeste 0 -- -- 90
2019-04-06 21:00:00 1.3 4 Sudoeste 35 Sudoeste 1.6 -- -- 94
2019-04-06 20:00:00 3.3 13 Sudoeste 23 Sudoeste 0 -- -- 87
2019-04-06 19:00:00 2.8 17 Sudoeste 42 Oeste 1 -- -- 90
2019-04-06 18:00:00 1.9 21 Oeste 55 Noroeste 1.4 -- -- 91
2019-04-06 17:00:00 7.5 27 Oeste 53 Sudoeste 0 -- -- 60
2019-04-06 16:00:00 6.3 22 Oeste 45 Oeste 0 -- -- 74
2019-04-06 15:00:00 6.1 23 Oeste 45 Oeste 0 -- -- 71
2019-04-06 14:00:00 6.2 24 Oeste 45 Oeste 0 -- -- 68
2019-04-06 13:00:00 4.4 27 Oeste 50 Oeste 0 -- -- 74
2019-04-06 12:00:00 4.5 32 Oeste 49 Oeste 0 -- -- 74
2019-04-06 11:00:00 3.8 30 Oeste 50 Oeste 0 -- -- 73
2019-04-06 10:00:00 3.3 27 Oeste 46 Oeste 0 -- -- 78
2019-04-06 09:00:00 2.2 24 Oeste 36 Oeste 0 -- -- 85
2019-04-06 08:00:00 1 7 Oeste 19 Oeste 0 -- -- 91
2019-04-06 07:00:00 1.3 18 Oeste 35 Oeste 0 -- -- 90
2019-04-06 06:00:00 1.8 21 Oeste 33 Oeste 0 -- -- 86
2019-04-06 05:00:00 1.8 20 Oeste 36 Oeste 0 -- -- 87
2019-04-06 04:00:00 1.4 19 Oeste 31 Oeste 0 -- -- 89
2019-04-06 03:00:00 1.5 22 Oeste 37 Oeste 0 -- -- 86
2019-04-06 02:00:00 1.6 21 Oeste 37 Oeste 0 -- -- 87
2019-04-06 01:00:00 2 24 Oeste 41 Oeste 0 -- -- 88
2019-04-06 00:00:00 2.1 23 Oeste 38 Oeste 0 -- -- 89
2019-04-05 23:00:00 1.8 15 Oeste 30 Noroeste 0 -- -- 92
2019-04-05 22:00:00 1.7 21 Oeste 51 Oeste 0.4 -- -- 91
2019-04-05 21:00:00 3.3 19 Oeste 55 Oeste 1 -- -- 88
2019-04-05 20:00:00 5.8 5 Sudoeste 10 Sur 0 -- -- 80
2019-04-05 19:00:00 6 7 Sur 27 Sudoeste 0 -- -- 80
2019-04-05 18:00:00 4.5 23 Sudoeste 45 Oeste 0.4 -- -- 86
2019-04-05 17:00:00 7.7 17 Sudoeste 28 Sudoeste 0 -- -- 69
2019-04-05 16:00:00 6.7 17 Oeste 28 Oeste 0.8 -- -- 74
2019-04-05 15:00:00 6.5 8 Noroeste 15 Noroeste 0.4 -- -- 80
2019-04-05 14:00:00 6.9 9 Oeste 26 Sudoeste 0.4 -- -- 73
2019-04-05 13:00:00 8.2 14 Sudoeste 29 Sudoeste 0 -- -- 62
2019-04-05 12:00:00 7.7 22 Sudoeste 33 Sudoeste 0 -- -- 62
2019-04-05 11:00:00 7.1 12 Oeste 24 Oeste 0 -- -- 65
2019-04-05 10:00:00 6.4 9 Sudoeste 23 Sur 0 -- -- 67
2019-04-05 09:00:00 3.9 4 Sur 15 Sudoeste 0 -- -- 78
2019-04-05 08:00:00 2.7 5 Sudoeste 18 Sudoeste 0 -- -- 81
2019-04-05 07:00:00 3.6 9 Oeste 17 Oeste 0 -- -- 75
2019-04-05 06:00:00 4.4 10 Sudoeste 29 Sur 0 -- -- 84
2019-04-05 05:00:00 4.3 18 Sur 28 Sur 0 -- -- 85
2019-04-05 04:00:00 4.7 20 Sur 33 Sur 0 -- -- 76
2019-04-05 03:00:00 3.7 23 Sur 43 Sur 0 -- -- 75
2019-04-05 02:00:00 3.4 24 Sur 33 Sur 0 -- -- 71
2019-04-05 01:00:00 3.5 15 Sur 23 Sur 0 -- -- 60
2019-04-05 00:00:00 3.6 12 Sudoeste 16 Sudoeste 0 -- -- 67
2019-04-04 23:00:00 3.2 13 Sudoeste 22 Oeste 0 -- -- 72
2019-04-04 22:00:00 6.3 13 Oeste 22 Oeste 0 -- -- 56
2019-04-04 21:00:00 8 11 Oeste 17 Oeste 0 -- -- 42
2019-04-04 20:00:00 8.8 6 Noroeste 23 Oeste 0 -- -- 40
2019-04-04 19:00:00 10.5 8 Oeste 25 Sudoeste 0 -- -- 38
2019-04-04 18:00:00 10.4 16 Sur 30 Oeste 0 -- -- 43
2019-04-04 17:00:00 10.1 10 Noroeste 28 Noroeste 0 -- -- 40
2019-04-04 16:00:00 9.7 12 Oeste 25 Oeste 0 -- -- 36
2019-04-04 15:00:00 8.5 12 Oeste 22 Oeste 0 -- -- 42
2019-04-04 14:00:00 6.7 8 Noroeste 22 Norte 0 -- -- 52
2019-04-04 13:00:00 5.3 12 Norte 28 Norte 0 -- -- 50
2019-04-04 12:00:00 4.1 13 Norte 24 Noroeste 0 -- -- 57
2019-04-04 11:00:00 2.5 18 Noroeste 31 Noroeste 0 -- -- 63
2019-04-04 10:00:00 0.6 14 Noroeste 23 Noroeste 0 -- -- 75
2019-04-04 09:00:00 -1.2 6 Norte 15 Noroeste 0 -- -- 82
2019-04-04 08:00:00 -1.9 10 Norte 15 Norte 0 -- -- 80
2019-04-04 07:00:00 -1.9 6 Noroeste 20 Noroeste 0 -- -- 80
2019-04-04 06:00:00 -1 13 Oeste 20 Oeste 0 -- -- 80
2019-04-04 05:00:00 -1.9 9 Oeste 13 Oeste 0 -- -- 92
2019-04-04 04:00:00 -1.2 5 Oeste 9 Sudoeste 0 -- -- 90
2019-04-04 03:00:00 -1.1 3 Este 10 Noroeste 0 -- -- 91
2019-04-04 02:00:00 0 6 Noroeste 17 Norte 0 -- -- 87
2019-04-04 01:00:00 0.7 12 Norte 16 Norte 0 -- -- 86
2019-04-04 00:00:00 1 3 Norte 7 Sur 0 -- -- 91
2019-04-03 23:00:00 1.3 5 Sudeste 13 Norte 0 -- -- 93
2019-04-03 22:00:00 2.2 12 Norte 23 Nordeste 0 -- -- 86
2019-04-03 21:00:00 1.4 15 Nordeste 38 Nordeste 0 -- -- 92
2019-04-03 20:00:00 3.5 21 Este 36 Nordeste 0 -- -- 87
2019-04-03 19:00:00 7.5 15 Noroeste 28 Noroeste 0 -- -- 56
2019-04-03 18:00:00 7.1 11 Noroeste 27 Noroeste 0 -- -- 60
2019-04-03 17:00:00 6.7 18 Noroeste 28 Norte 0 -- -- 66
2019-04-03 16:00:00 5.9 16 Norte 33 Noroeste 0 -- -- 74
2019-04-03 15:00:00 6 17 Norte 31 Norte 0.2 -- -- 79
2019-04-03 14:00:00 7.7 18 Norte 29 Norte 0 -- -- 78
2019-04-03 13:00:00 7.9 18 Norte 25 Norte 0 -- -- 75
2019-04-03 12:00:00 8.1 13 Norte 29 Nordeste 0 -- -- 77
2019-04-03 11:00:00 8.3 12 Norte 18 Norte 0 -- -- 82
2019-04-03 10:00:00 7.9 8 Oeste 18 Oeste 0 -- -- 83
2019-04-03 09:00:00 6.8 11 Sudoeste 16 Sudoeste 0 -- -- 86
2019-04-03 08:00:00 6.4 9 Oeste 21 Oeste 0 -- -- 87
2019-04-03 07:00:00 6.6 12 Oeste 22 Oeste 0 -- -- 86
2019-04-03 06:00:00 6.5 14 Oeste 23 Oeste 0 -- -- 86
2019-04-03 05:00:00 6.4 13 Oeste 25 Oeste 0 -- -- 87
2019-04-03 04:00:00 6.3 15 Oeste 22 Oeste 0 -- -- 86
2019-04-03 03:00:00 5.4 2 Sudeste 10 Sudeste 0 -- -- 88
2019-04-03 02:00:00 7.3 3 Oeste 13 Sudoeste 0 -- -- 82
2019-04-03 01:00:00 7 7 Sudeste 13 Oeste 0 -- -- 90
2019-04-03 00:00:00 7.3 0 Calma 18 Noroeste 0 -- -- 83
2019-04-02 23:00:00 8.1 9 Noroeste 17 Sudoeste 0 -- -- 82
2019-04-02 22:00:00 7.2 11 Sudoeste 27 Sur 0 -- -- 90
2019-04-02 21:00:00 7.8 13 Sur 19 Sudoeste 0 -- -- 89
2019-04-02 20:00:00 10.1 6 Sur 12 Sudeste 0 -- -- 75
2019-04-02 19:00:00 9.1 12 Este 22 Nordeste 0.6 -- -- 83
2019-04-02 18:00:00 8.9 20 Norte 39 Norte 0.4 -- -- 84
2019-04-02 17:00:00 14.6 11 Sudoeste 19 Oeste 0 -- -- 48
2019-04-02 16:00:00 13.7 5 Oeste 15 Oeste 0 -- -- 52
2019-04-02 15:00:00 11.5 7 Oeste 45 Oeste 0 -- -- 60
2019-04-02 14:00:00 12.2 9 Norte 25 Norte 0 -- -- 69
2019-04-02 13:00:00 12.5 11 Norte 19 Norte 0 -- -- 72
2019-04-02 12:00:00 11.1 7 Norte 14 Noroeste 0 -- -- 75
2019-04-02 11:00:00 9.8 3 Noroeste 9 Noroeste 0 -- -- 80
2019-04-02 10:00:00 7.5 4 Norte 8 Noroeste 0 -- -- 91
2019-04-02 09:00:00 6.1 7 Noroeste 14 Sudoeste 0 -- -- 92
2019-04-02 08:00:00 6.8 13 Sudoeste 27 Sudoeste 0.2 -- -- 87
2019-04-02 07:00:00 6.7 18 Sudoeste 31 Oeste 0.6 -- -- 91
2019-04-02 06:00:00 6.8 14 Oeste 24 Oeste 0 -- -- 91
2019-04-02 05:00:00 7 11 Noroeste 19 Noroeste 0.4 -- -- 92
2019-04-02 04:00:00 6 6 Noroeste 12 Norte 0 -- -- 97
2019-04-02 03:00:00 6.1 3 Oeste 6 Oeste 0 -- -- 94
2019-04-02 02:00:00 7.4 0 Calma 6 Sudoeste 0 -- -- 95
2019-04-02 01:00:00 7.4 0 Calma 9 Sudoeste 0 -- -- 95
2019-04-02 00:00:00 7.9 5 Sudoeste 14 Sur 0 -- -- 93
2019-04-01 23:00:00 8.1 10 Sudoeste 14 Sudoeste 0 -- -- 95
2019-04-01 22:00:00 8.3 9 Sudeste 13 Sur 1.2 -- -- 95
2019-04-01 21:00:00 8.7 8 Sudeste 12 Este 0.6 -- -- 94
2019-04-01 20:00:00 9 4 Nordeste 9 Este 0.4 -- -- 88
2019-04-01 19:00:00 9.4 4 Norte 6 Noroeste 0.4 -- -- 86
2019-04-01 18:00:00 9 3 Noroeste 16 Noroeste 1.2 -- -- 89
2019-04-01 17:00:00 9.3 5 Nordeste 10 Norte 1 -- -- 89
2019-04-01 16:00:00 8.1 6 Noroeste 22 Oeste 1.6 -- -- 91
2019-04-01 15:00:00 9.5 13 Oeste 19 Oeste 0.4 -- -- 84
2019-04-01 14:00:00 10.8 9 Sur 18 Sur 0 -- -- 78
2019-04-01 13:00:00 9.9 8 Sudeste 16 Sudeste 0 -- -- 83
2019-04-01 12:00:00 8.9 10 Sudeste 15 Sudeste 0 -- -- 88
2019-04-01 11:00:00 8.2 8 Sudeste 11 Este 0 -- -- 94
2019-04-01 10:00:00 6.5 10 Sudeste 12 Sudeste 0.2 -- -- 97
2019-04-01 09:00:00 5.9 3 Sudeste 10 Sudeste 0 -- -- 98
2019-04-01 08:00:00 5.6 6 Sudeste 8 Sudeste 0.4 -- -- 98
2019-04-01 07:00:00 5.4 4 Este 8 Este 0.4 -- -- 97
2019-04-01 06:00:00 5.5 5 Este 9 Este 0 -- -- 97
2019-04-01 05:00:00 5.5 5 Este 7 Este 0 -- -- 97
2019-04-01 04:00:00 5.5 3 Este 7 Este 0.2 -- -- 97
2019-04-01 03:00:00 5.4 4 Este 10 Este 0.6 -- -- 97
2019-04-01 02:00:00 5.3 5 Este 8 Este 0.4 -- -- 97
2019-04-01 01:00:00 5.3 6 Nordeste 10 Este 0.4 -- -- 97
2019-04-01 00:00:00 5.3 6 Este 12 Este 0.4 -- -- 96
2019-03-31 23:00:00 5.4 9 Este 14 Este 0.2 -- -- 96
2019-03-31 22:00:00 5.5 8 Este 17 Este 0 -- -- 95
2019-03-31 21:00:00 5.6 12 Este 19 Nordeste 0.2 -- -- 95
2019-03-31 20:00:00 5.9 12 Nordeste 19 Nordeste 0.8 -- -- 95
2019-03-31 19:00:00 6.4 9 Este 16 Nordeste 1.6 -- -- 93
2019-03-31 18:00:00 6.3 11 Este 19 Este 2.8 -- -- 93
2019-03-31 17:00:00 6.2 15 Nordeste 19 Nordeste 3.8 -- -- 93
2019-03-31 16:00:00 6.4 11 Nordeste 20 Este 1.6 -- -- 89
2019-03-31 15:00:00 7.3 11 Nordeste 16 Este 0.2 -- -- 83
2019-03-31 14:00:00 6.8 10 Sudeste 22 Sudeste 0.2 -- -- 82
2019-03-31 13:00:00 7.9 11 Sudeste 17 Sudeste 0 -- -- 73
2019-03-31 12:00:00 7 9 Sudeste 20 Sur 0 -- -- 71
2019-03-31 11:00:00 7 9 Sudeste 19 Sur 0 -- -- 67
2019-03-31 10:00:00 5.7 13 Sur 20 Sur 0 -- -- 77
2019-03-31 09:00:00 2.8 2 Sudoeste 4 Sur 0 -- -- 91
2019-03-31 08:00:00 1.6 3 Oeste 5 Oeste 0 -- -- 91
2019-03-31 07:00:00 1.3 4 Oeste 6 Noroeste 0 -- -- 89
2019-03-31 06:00:00 1.8 4 Noroeste 8 Sur 0 -- -- 89
2019-03-31 05:00:00 1.4 5 Sur 8 Nordeste 0 -- -- 90
2019-03-31 03:00:00 3.3 3 Noroeste 8 Este 0 -- -- 84
2019-03-31 01:00:00 4.7 5 Sur 15 Sudeste 0 -- -- 81
2019-03-31 00:00:00 5.7 13 Sudeste 30 Sudeste 0 -- -- 79
2019-03-30 23:00:00 6.5 23 Sudeste 30 Sudeste 0 -- -- 77
2019-03-30 22:00:00 7.2 16 Sudeste 22 Sudeste 0 -- -- 72
2019-03-30 21:00:00 7.3 8 Sudeste 17 Sudeste 0 -- -- 53
2019-03-30 20:00:00 9.6 14 Sudeste 23 Este 0 -- -- 47
2019-03-30 19:00:00 12 22 Este 33 Este 0 -- -- 41
2019-03-30 18:00:00 14.4 19 Este 31 Este 0 -- -- 34
2019-03-30 17:00:00 15.6 5 Nordeste 16 Sudeste 0 -- -- 30
2019-03-30 16:00:00 14.8 5 Sudeste 24 Norte 0 -- -- 29
2019-03-30 15:00:00 15.3 9 Nordeste 16 Este 0 -- -- 29
2019-03-30 14:00:00 14.4 7 Nordeste 22 Este 0 -- -- 30
2019-03-30 13:00:00 13.1 12 Sudeste 23 Sudeste 0 -- -- 34
2019-03-30 12:00:00 11.8 16 Sudeste 27 Este 0 -- -- 35
2019-03-30 11:00:00 9.8 9 Sur 16 Sudeste 0 -- -- 43
2019-03-30 10:00:00 6.9 4 Sur 9 Sur 0 -- -- 54
2019-03-30 09:00:00 3.3 2 Sudeste 6 Oeste 0 -- -- 64
2019-03-30 08:00:00 -0.8 6 Oeste 12 Oeste 0 -- -- 81
2019-03-30 07:00:00 -1 10 Sur 14 Sudoeste 0 -- -- 83
2019-03-30 06:00:00 -1.1 5 Oeste 10 Oeste 0 -- -- 85
2019-03-30 05:00:00 -0.3 6 Sudoeste 21 Sur 0 -- -- 85
2019-03-30 04:00:00 2.4 18 Sur 23 Sur 0 -- -- 78
2019-03-30 03:00:00 3 13 Sur 23 Sur 0 -- -- 75
2019-03-30 02:00:00 1.6 12 Sudeste 17 Sudeste 0 -- -- 78
2019-03-30 01:00:00 2.2 13 Sudeste 22 Sudeste 0 -- -- 76
2019-03-30 00:00:00 4.3 17 Sudeste 27 Sudeste 0 -- -- 73
2019-03-29 23:00:00 5.5 11 Sudeste 25 Sudoeste 0 -- -- 63
2019-03-29 22:00:00 7 18 Sur 44 Sur 0 -- -- 58
2019-03-29 21:00:00 8.4 35 Sur 49 Sur 0 -- -- 55
2019-03-29 20:00:00 10.1 32 Sur 51 Sur 0 -- -- 48
2019-03-29 19:00:00 12.3 30 Sur 40 Sur 0 -- -- 40
2019-03-29 18:00:00 14.7 24 Sur 33 Sur 0 -- -- 31
2019-03-29 17:00:00 15.4 20 Sudeste 31 Sudeste 0 -- -- 28
2019-03-29 16:00:00 15.7 21 Sudeste 35 Sudeste 0 -- -- 28
2019-03-29 15:00:00 15.4 19 Sur 36 Sudeste 0 -- -- 27
2019-03-29 14:00:00 15.1 23 Sudeste 41 Sudeste 0 -- -- 30
2019-03-29 13:00:00 13.8 16 Sur 33 Sur 0 -- -- 32
2019-03-29 12:00:00 12.7 22 Sur 33 Sur 0 -- -- 33
2019-03-29 11:00:00 11.1 23 Sur 38 Sur 0 -- -- 38
2019-03-29 10:00:00 9.5 23 Sur 32 Sur 0 -- -- 42
2019-03-29 09:00:00 4.3 2 Noroeste 5 Nordeste 0 -- -- 58
2019-03-29 08:00:00 0.2 3 Noroeste 6 Oeste 0 -- -- 72
2019-03-29 07:00:00 -2.1 3 Noroeste 6 Oeste 0 -- -- 74
2019-03-29 06:00:00 -0.8 5 Oeste 14 Oeste 0 -- -- 73
2019-03-29 05:00:00 0.1 6 Oeste 8 Oeste 0 -- -- 71
2019-03-29 04:00:00 3.1 7 Sudoeste 16 Sur 0 -- -- 63
2019-03-29 03:00:00 3.3 9 Sur 20 Sur 0 -- -- 66
2019-03-29 02:00:00 3.9 13 Sur 20 Sur 0 -- -- 64
2019-03-29 01:00:00 4.8 10 Sur 18 Sur 0 -- -- 61
2019-03-29 00:00:00 4.6 13 Sudeste 28 Sur 0 -- -- 64
2019-03-28 23:00:00 6.8 19 Sur 33 Sur 0 -- -- 58
2019-03-28 22:00:00 5.6 15 Sur 19 Sur 0 -- -- 61
2019-03-28 21:00:00 6.7 8 Sudeste 15 Este 0 -- -- 52
2019-03-28 20:00:00 9.1 12 Este 19 Nordeste 0 -- -- 48
2019-03-28 19:00:00 12.7 14 Nordeste 23 Nordeste 0 -- -- 42
2019-03-28 18:00:00 15.3 8 Nordeste 21 Este 0 -- -- 29
2019-03-28 17:00:00 15.7 7 Nordeste 17 Este 0 -- -- 26
2019-03-28 16:00:00 15.7 8 Norte 14 Sudoeste 0 -- -- 29
2019-03-28 15:00:00 15.2 5 Noroeste 13 Nordeste 0 -- -- 26
2019-03-28 14:00:00 14.3 8 Nordeste 24 Noroeste 0 -- -- 27
2019-03-28 13:00:00 13.3 6 Nordeste 15 Norte 0 -- -- 34
2019-03-28 12:00:00 11.2 5 Norte 10 Norte 0 -- -- 35
2019-03-28 11:00:00 9 3 Sudeste 9 Nordeste 0 -- -- 43
2019-03-28 10:00:00 6.1 3 Nordeste 7 Nordeste 0 -- -- 49
2019-03-28 09:00:00 2.4 0 Calma 4 Nordeste 0 -- -- 57
2019-03-28 08:00:00 -2 2 Este 9 Oeste 0 -- -- 71
2019-03-28 07:00:00 -4.9 9 Sudoeste 12 Oeste 0 -- -- 78
2019-03-28 06:00:00 -4.2 3 Oeste 9 Oeste 0 -- -- 73
2019-03-28 05:00:00 -3.4 3 Noroeste 8 Sudoeste 0 -- -- 71
2019-03-28 04:00:00 -3.1 3 Sudoeste 6 Sudoeste 0 -- -- 69
2019-03-28 03:00:00 -2.9 6 Sudeste 8 Sudeste 0 -- -- 69
2019-03-28 02:00:00 -1.6 3 Sudeste 6 Sur 0 -- -- 62
2019-03-28 01:00:00 -0.7 4 Sur 11 Sudeste 0 -- -- 60
2019-03-28 00:00:00 2 9 Sudeste 15 Sudeste 0 -- -- 51
2019-03-27 23:00:00 4.4 9 Sudeste 11 Este 0 -- -- 44
2019-03-27 22:00:00 4.5 5 Sudeste 15 Este 0 -- -- 42
2019-03-27 21:00:00 5.6 7 Este 12 Este 0 -- -- 38
2019-03-27 20:00:00 8.2 4 Este 12 Este 0 -- -- 35
2019-03-27 19:00:00 12.1 7 Este 20 Nordeste 0 -- -- 27
2019-03-27 18:00:00 13.7 14 Nordeste 26 Nordeste 0 -- -- 24
2019-03-27 17:00:00 14.6 15 Este 27 Este 0 -- -- 24
2019-03-27 16:00:00 14.5 12 Este 24 Nordeste 0 -- -- 26
2019-03-27 15:00:00 14.2 11 Este 20 Nordeste 0 -- -- 26
2019-03-27 14:00:00 12.9 9 Nordeste 15 Norte 0 -- -- 31
2019-03-27 13:00:00 11.4 5 Oeste 14 Nordeste 0 -- -- 39
2019-03-27 12:00:00 10.2 6 Sur 15 Este 0 -- -- 41
2019-03-27 11:00:00 8.2 5 Este 13 Este 0 -- -- 44
2019-03-27 10:00:00 6.1 6 Este 11 Este 0 -- -- 48
2019-03-27 09:00:00 2.4 0 Calma 5 Sur 0 -- -- 62
2019-03-27 08:00:00 -3.4 0 Calma 6 Sudoeste 0 -- -- 75
2019-03-27 07:00:00 -6.4 5 Sudoeste 7 Nordeste 0 -- -- 80
2019-03-27 06:00:00 -4.7 4 Sudoeste 10 Oeste 0 -- -- 78
2019-03-27 05:00:00 -5 0 Calma 11 Oeste 0 -- -- 71
2019-03-27 04:00:00 -4.5 4 Sudoeste 10 Oeste 0 -- -- 69
2019-03-27 03:00:00 -3.7 3 Sudoeste 5 Sudoeste 0 -- -- 66
2019-03-27 02:00:00 -2.5 0 Calma 8 Oeste 0 -- -- 59
2019-03-27 01:00:00 -0.2 4 Sur 13 Sur 0 -- -- 57
2019-03-27 00:00:00 0.3 8 Sur 14 Este 0 -- -- 52
2019-03-26 23:00:00 3.2 13 Sudeste 15 Este 0 -- -- 46
2019-03-26 22:00:00 3.6 4 Sudeste 9 Sur 0 -- -- 38
2019-03-26 21:00:00 5.6 3 Este 8 Este 0 -- -- 35
2019-03-26 20:00:00 7.2 3 Este 18 Nordeste 0 -- -- 33
2019-03-26 19:00:00 11.5 16 Nordeste 27 Nordeste 0 -- -- 26
2019-03-26 18:00:00 13.6 18 Nordeste 32 Nordeste 0 -- -- 24
2019-03-26 17:00:00 14.6 18 Nordeste 28 Nordeste 0 -- -- 24
2019-03-26 16:00:00 14.5 21 Nordeste 32 Nordeste 0 -- -- 26
2019-03-26 15:00:00 14.1 13 Nordeste 27 Este 0 -- -- 32
2019-03-26 14:00:00 12.9 13 Nordeste 31 Este 0 -- -- 40
2019-03-26 13:00:00 11.7 9 Nordeste 22 Nordeste 0 -- -- 44
2019-03-26 12:00:00 9.9 12 Este 23 Este 0 -- -- 50
2019-03-26 11:00:00 8 10 Este 23 Este 0 -- -- 54
2019-03-26 10:00:00 5.6 16 Este 24 Este 0 -- -- 61
2019-03-26 09:00:00 1.8 3 Este 5 Este 0 -- -- 82
2019-03-26 08:00:00 -3.2 2 Sur 5 Sudeste 0 -- -- 93
2019-03-26 07:00:00 -5.5 3 Sudeste 4 Sudeste 0 -- -- 89
2019-03-26 06:00:00 -5 5 Oeste 7 Sudoeste 0 -- -- 89
2019-03-26 05:00:00 -4 0 Calma 6 Nordeste 0 -- -- 89
2019-03-26 04:00:00 -3.7 4 Norte 8 Nordeste 0 -- -- 86
2019-03-26 03:00:00 -2.1 4 Sudeste 6 Sur 0 -- -- 85
2019-03-26 02:00:00 -1.8 0 Calma 9 Sur 0 -- -- 84
2019-03-26 01:00:00 -1 5 Sudoeste 8 Sudoeste 0 -- -- 80
2019-03-26 00:00:00 1.2 8 Nordeste 19 Este 0 -- -- 74
2019-03-25 23:00:00 2.4 6 Este 10 Nordeste 0 -- -- 64
2019-03-25 22:00:00 4.7 7 Nordeste 12 Nordeste 0 -- -- 60
2019-03-25 21:00:00 6.2 6 Nordeste 13 Nordeste 0 -- -- 55
2019-03-25 20:00:00 7 6 Este 21 Este 0 -- -- 54
2019-03-25 19:00:00 10.1 13 Este 33 Nordeste 0 -- -- 45
2019-03-25 18:00:00 12.7 24 Nordeste 31 Nordeste 0 -- -- 41
2019-03-25 17:00:00 14.2 19 Este 33 Este 0 -- -- 40
2019-03-25 16:00:00 15.1 18 Este 29 Este 0 -- -- 39
2019-03-25 15:00:00 15.3 9 Nordeste 21 Este 0 -- -- 38
2019-03-25 14:00:00 14.8 9 Nordeste 19 Nordeste 0 -- -- 42
2019-03-25 13:00:00 13.7 9 Nordeste 20 Norte 0 -- -- 45
2019-03-25 12:00:00 12.4 7 Nordeste 19 Este 0 -- -- 46
2019-03-25 11:00:00 11 10 Nordeste 17 Nordeste 0 -- -- 51
2019-03-25 10:00:00 9.3 3 Este 7 Este 0 -- -- 54
2019-03-25 09:00:00 5.2 3 Sudoeste 6 Sudoeste 0 -- -- 65
2019-03-25 08:00:00 -0.5 3 Oeste 9 Oeste 0 -- -- 77
2019-03-25 07:00:00 -1.8 6 Oeste 9 Oeste 0 -- -- 79
2019-03-25 06:00:00 -1.7 4 Oeste 8 Oeste 0 -- -- 78
2019-03-25 05:00:00 0.1 3 Oeste 11 Sudoeste 0 -- -- 72
2019-03-25 04:00:00 0.4 5 Sudoeste 11 Oeste 0 -- -- 71
2019-03-25 03:00:00 1 5 Oeste 9 Oeste 0 -- -- 68
2019-03-25 02:00:00 1.5 4 Sudoeste 15 Oeste 0 -- -- 68
2019-03-25 01:00:00 3.4 8 Sudoeste 10 Sudoeste 0 -- -- 61
2019-03-25 00:00:00 3.8 8 Sudeste 13 Sudeste 0 -- -- 59
2019-03-24 23:00:00 5 3 Sur 12 Sudoeste 0 -- -- 55
2019-03-24 22:00:00 7.7 10 Sudoeste 16 Sudoeste 0 -- -- 47
2019-03-24 21:00:00 8.6 2 Este 10 Este 0 -- -- 46
2019-03-24 20:00:00 10.4 8 Este 21 Nordeste 0 -- -- 42
2019-03-24 19:00:00 15 18 Nordeste 27 Nordeste 0 -- -- 33
2019-03-24 18:00:00 17.2 12 Este 36 Este 0 -- -- 27
2019-03-24 17:00:00 17.3 14 Este 25 Este 0 -- -- 26
2019-03-24 16:00:00 17.6 14 Este 27 Nordeste 0 -- -- 28
2019-03-24 15:00:00 18.7 9 Este 21 Sudeste 0 -- -- 27
2019-03-24 14:00:00 17.9 13 Sudeste 31 Este 0 -- -- 28
2019-03-24 13:00:00 17.2 14 Sudeste 27 Sudeste 0 -- -- 30
2019-03-24 12:00:00 16 12 Sudeste 23 Sudeste 0 -- -- 32
2019-03-24 11:00:00 12.6 5 Sudeste 9 Este 0 -- -- 44
2019-03-24 10:00:00 8.4 2 Norte 6 Sudeste 0 -- -- 55
2019-03-24 09:00:00 3.6 0 Calma 5 Este 0 -- -- 67
2019-03-24 08:00:00 -1.5 4 Oeste 8 Sudoeste 0 -- -- 81
2019-03-24 07:00:00 -3.5 3 Sudoeste 5 Sudoeste 0 -- -- 83
2019-03-24 06:00:00 -2.7 4 Noroeste 10 Sudoeste 0 -- -- 81
2019-03-24 05:00:00 -1.9 3 Oeste 6 Sudoeste 0 -- -- 79
2019-03-24 04:00:00 -0.4 6 Oeste 13 Sudoeste 0 -- -- 74
2019-03-24 03:00:00 -0.4 4 Sudoeste 8 Oeste 0 -- -- 75
2019-03-24 02:00:00 0.5 3 Sudoeste 8 Oeste 0 -- -- 72
2019-03-24 01:00:00 2 6 Oeste 9 Oeste 0 -- -- 67
2019-03-24 00:00:00 4.1 2 Norte 6 Oeste 0 -- -- 63
2019-03-23 23:00:00 5.5 3 Sudoeste 14 Sudoeste 0 -- -- 59
2019-03-23 22:00:00 8.2 3 Sur 22 Sur 0 -- -- 52
2019-03-23 21:00:00 10.4 19 Sur 24 Sur 0 -- -- 47
2019-03-23 20:00:00 10 12 Sur 23 Sudeste 0 -- -- 50
2019-03-23 19:00:00 13.4 10 Este 22 Sudeste 0 -- -- 44
2019-03-23 18:00:00 15.2 14 Este 26 Sudeste 0 -- -- 38
2019-03-23 17:00:00 16 11 Este 25 Nordeste 0 -- -- 36
2019-03-23 16:00:00 16.9 15 Este 31 Sudeste 0 -- -- 34
2019-03-23 15:00:00 16.9 14 Sudeste 35 Este 0 -- -- 34
2019-03-23 14:00:00 16.5 20 Sudeste 39 Este 0 -- -- 35
2019-03-23 13:00:00 15.7 14 Este 26 Nordeste 0 -- -- 38
2019-03-23 12:00:00 13.9 15 Este 25 Este 0 -- -- 46
2019-03-23 11:00:00 11.8 3 Nordeste 6 Nordeste 0 -- -- 53
2019-03-23 10:00:00 7.2 2 Oeste 4 Noroeste 0 -- -- 65
2019-03-23 09:00:00 3.4 0 Calma 6 Sudoeste 0 -- -- 77
2019-03-23 08:00:00 -0.6 0 Calma 6 Oeste 0 -- -- 86
2019-03-23 07:00:00 -1.5 3 Sudoeste 12 Oeste 0 -- -- 86
2019-03-23 06:00:00 -1.3 5 Oeste 8 Oeste 0 -- -- 84
2019-03-23 05:00:00 -1.2 4 Sudoeste 11 Sudoeste 0 -- -- 84
2019-03-23 04:00:00 -0.4 3 Oeste 9 Sudoeste 0 -- -- 82
2019-03-23 03:00:00 -0.3 7 Sudoeste 10 Sudoeste 0 -- -- 80
2019-03-23 02:00:00 0.7 4 Oeste 6 Sudoeste 0 -- -- 78
2019-03-23 01:00:00 2.8 8 Sudoeste 12 Sudoeste 0 -- -- 73
2019-03-23 00:00:00 4.3 0 Calma 15 Sur 0 -- -- 70
2019-03-22 23:00:00 4.4 9 Sur 18 Sudeste 0 -- -- 67
2019-03-22 22:00:00 5.5 12 Sudeste 21 Sudeste 0 -- -- 64
2019-03-22 21:00:00 6.9 13 Sudeste 17 Sudeste 0 -- -- 60
2019-03-22 20:00:00 8.5 10 Sudeste 15 Sudeste 0 -- -- 54
2019-03-22 19:00:00 12.4 13 Este 23 Sudeste 0 -- -- 46
2019-03-22 18:00:00 14.7 16 Sudeste 24 Sudeste 0 -- -- 40
2019-03-22 17:00:00 14.9 18 Sudeste 29 Este 0 -- -- 40
2019-03-22 16:00:00 14.8 16 Este 30 Este 0 -- -- 40
2019-03-22 15:00:00 14 15 Sudeste 33 Sudeste 0 -- -- 39
2019-03-22 14:00:00 13.9 21 Sudeste 36 Sudeste 0 -- -- 37
2019-03-22 13:00:00 13.3 15 Este 27 Este 0 -- -- 39
2019-03-22 12:00:00 11.4 12 Este 25 Este 0 -- -- 41
2019-03-22 11:00:00 9 5 Este 9 Este 0 -- -- 48
2019-03-22 10:00:00 5 2 Noroeste 5 Norte 0 -- -- 58
2019-03-22 09:00:00 1.4 2 Nordeste 4 Este 0 -- -- 67
2019-03-22 08:00:00 -3.7 3 Oeste 10 Sudoeste 0 -- -- 82
2019-03-22 07:00:00 -5.1 2 Norte 9 Oeste 0 -- -- 83
2019-03-22 06:00:00 -4.4 4 Oeste 8 Sudoeste 0 -- -- 81
2019-03-22 05:00:00 -3.6 5 Oeste 11 Sudoeste 0 -- -- 77
2019-03-22 04:00:00 -3.8 5 Sudoeste 10 Sudoeste 0 -- -- 75
2019-03-22 03:00:00 -3.1 5 Sur 6 Sur 0 -- -- 71
2019-03-22 02:00:00 -1.5 4 Noroeste 6 Noroeste 0 -- -- 66
2019-03-22 01:00:00 -1 7 Sudoeste 14 Sudoeste 0 -- -- 63
2019-03-22 00:00:00 0.3 8 Sudoeste 12 Sudoeste 0 -- -- 60
2019-03-21 23:00:00 0.1 6 Sudoeste 11 Sudoeste 0 -- -- 60
2019-03-21 22:00:00 2.2 3 Sur 9 Este 0 -- -- 53
2019-03-21 21:00:00 3.6 5 Sudeste 18 Este 0 -- -- 49
2019-03-21 20:00:00 6.3 13 Este 20 Nordeste 0 -- -- 47
2019-03-21 19:00:00 9.3 16 Nordeste 28 Nordeste 0 -- -- 41
2019-03-21 18:00:00 11.2 12 Nordeste 26 Este 0 -- -- 35
2019-03-21 17:00:00 11.7 8 Nordeste 24 Este 0 -- -- 33
2019-03-21 16:00:00 11.7 10 Sudeste 36 Sudeste 0 -- -- 37
2019-03-21 15:00:00 11.5 8 Norte 22 Nordeste 0 -- -- 39
2019-03-21 14:00:00 10.5 6 Nordeste 20 Este 0 -- -- 38
2019-03-21 13:00:00 9.8 7 Nordeste 18 Este 0 -- -- 40
2019-03-21 12:00:00 8.3 6 Nordeste 15 Este 0 -- -- 50
2019-03-21 11:00:00 5.5 3 Oeste 8 Oeste 0 -- -- 62
2019-03-21 10:00:00 3.1 3 Nordeste 6 Norte 0 -- -- 67
2019-03-21 09:00:00 -1.2 2 Norte 5 Norte 0 -- -- 76
2019-03-21 08:00:00 -5.5 0 Calma 6 Sudoeste 0 -- -- 86
2019-03-21 07:00:00 -6.2 5 Oeste 10 Sudoeste 0 -- -- 87
2019-03-21 06:00:00 -6 4 Oeste 7 Oeste 0 -- -- 87
2019-03-21 05:00:00 -5.3 2 Noroeste 3 Oeste 0 -- -- 84
2019-03-21 04:00:00 -4.6 2 Norte 6 Sudoeste 0 -- -- 82
2019-03-21 03:00:00 -4.3 0 Calma 9 Sudoeste 0 -- -- 80
2019-03-21 02:00:00 -2.8 4 Sudoeste 8 Este 0 -- -- 82
2019-03-21 01:00:00 0.7 7 Este 23 Este 0 -- -- 73
2019-03-21 00:00:00 1.8 8 Este 24 Este 0 -- -- 67